sensor_id;sensor_type;location;lat;lon;timestamp;P1;durP1;ratioP1;P2;durP2;ratioP2
43891;SDS011;29555;45.350;5.578;2023-05-07T00:02:21;1.20;;;0.50;;
43891;SDS011;29555;45.350;5.578;2023-05-07T00:04:47;5.35;;;1.60;;
43891;SDS011;29555;45.350;5.578;2023-05-07T00:07:13;2.53;;;1.05;;
43891;SDS011;29555;45.350;5.578;2023-05-07T00:09:38;1.48;;;1.27;;
43891;SDS011;29555;45.350;5.578;2023-05-07T00:12:03;1.27;;;0.93;;
43891;SDS011;29555;45.350;5.578;2023-05-07T00:14:29;0.70;;;0.60;;
43891;SDS011;29555;45.350;5.578;2023-05-07T00:16:54;0.70;;;0.70;;
43891;SDS011;29555;45.350;5.578;2023-05-07T00:19:20;0.65;;;0.65;;
43891;SDS011;29555;45.350;5.578;2023-05-07T00:21:45;1.83;;;0.73;;
43891;SDS011;29555;45.350;5.578;2023-05-07T00:24:11;3.78;;;1.33;;
43891;SDS011;29555;45.350;5.578;2023-05-07T00:26:37;2.17;;;1.05;;
43891;SDS011;29555;45.350;5.578;2023-05-07T00:29:02;1.40;;;1.05;;
43891;SDS011;29555;45.350;5.578;2023-05-07T00:31:27;2.00;;;0.52;;
43891;SDS011;29555;45.350;5.578;2023-05-07T00:33:53;0.60;;;0.60;;
43891;SDS011;29555;45.350;5.578;2023-05-07T00:36:18;0.60;;;0.60;;
43891;SDS011;29555;45.350;5.578;2023-05-07T00:38:43;2.65;;;0.50;;
43891;SDS011;29555;45.350;5.578;2023-05-07T00:41:09;0.73;;;0.35;;
43891;SDS011;29555;45.350;5.578;2023-05-07T00:43:34;9.63;;;1.92;;
43891;SDS011;29555;45.350;5.578;2023-05-07T00:45:59;2.50;;;0.85;;
43891;SDS011;29555;45.350;5.578;2023-05-07T00:48:26;1.15;;;1.05;;
43891;SDS011;29555;45.350;5.578;2023-05-07T00:50:52;0.73;;;0.63;;
43891;SDS011;29555;45.350;5.578;2023-05-07T00:53:18;3.40;;;0.82;;
43891;SDS011;29555;45.350;5.578;2023-05-07T00:55:43;0.47;;;0.47;;
43891;SDS011;29555;45.350;5.578;2023-05-07T00:58:09;1.58;;;0.63;;
43891;SDS011;29555;45.350;5.578;2023-05-07T01:00:34;2.15;;;0.50;;
43891;SDS011;29555;45.350;5.578;2023-05-07T01:03:00;0.45;;;0.45;;
43891;SDS011;29555;45.350;5.578;2023-05-07T01:05:26;0.75;;;0.70;;
43891;SDS011;29555;45.350;5.578;2023-05-07T01:07:53;0.47;;;0.47;;
43891;SDS011;29555;45.350;5.578;2023-05-07T01:10:19;0.63;;;0.63;;
43891;SDS011;29555;45.350;5.578;2023-05-07T01:12:45;0.63;;;0.63;;
43891;SDS011;29555;45.350;5.578;2023-05-07T01:15:12;1.80;;;1.13;;
43891;SDS011;29555;45.350;5.578;2023-05-07T01:17:38;0.50;;;0.50;;
43891;SDS011;29555;45.350;5.578;2023-05-07T01:20:05;0.95;;;0.85;;
43891;SDS011;29555;45.350;5.578;2023-05-07T01:22:32;1.23;;;0.80;;
43891;SDS011;29555;45.350;5.578;2023-05-07T01:24:58;0.90;;;0.90;;
43891;SDS011;29555;45.350;5.578;2023-05-07T01:27:26;1.23;;;0.95;;
43891;SDS011;29555;45.350;5.578;2023-05-07T01:29:51;1.25;;;0.88;;
43891;SDS011;29555;45.350;5.578;2023-05-07T01:32:18;0.40;;;0.40;;
43891;SDS011;29555;45.350;5.578;2023-05-07T01:34:45;8.18;;;1.58;;
43891;SDS011;29555;45.350;5.578;2023-05-07T01:37:13;8.27;;;1.30;;
43891;SDS011;29555;45.350;5.578;2023-05-07T01:39:39;1.65;;;0.95;;
43891;SDS011;29555;45.350;5.578;2023-05-07T01:42:05;1.40;;;1.17;;
43891;SDS011;29555;45.350;5.578;2023-05-07T01:44:30;5.90;;;1.10;;
43891;SDS011;29555;45.350;5.578;2023-05-07T01:46:56;1.75;;;0.57;;
43891;SDS011;29555;45.350;5.578;2023-05-07T01:49:22;1.08;;;0.68;;
43891;SDS011;29555;45.350;5.578;2023-05-07T01:51:47;2.50;;;1.10;;
43891;SDS011;29555;45.350;5.578;2023-05-07T01:54:13;1.33;;;0.95;;
43891;SDS011;29555;45.350;5.578;2023-05-07T01:56:39;0.98;;;0.60;;
43891;SDS011;29555;45.350;5.578;2023-05-07T01:59:04;5.22;;;0.95;;
43891;SDS011;29555;45.350;5.578;2023-05-07T02:01:30;0.95;;;0.90;;
43891;SDS011;29555;45.350;5.578;2023-05-07T02:03:55;8.38;;;1.23;;
43891;SDS011;29555;45.350;5.578;2023-05-07T02:06:20;0.68;;;0.55;;
43891;SDS011;29555;45.350;5.578;2023-05-07T02:08:46;1.55;;;0.88;;
43891;SDS011;29555;45.350;5.578;2023-05-07T02:11:12;1.75;;;0.85;;
43891;SDS011;29555;45.350;5.578;2023-05-07T02:13:37;2.45;;;0.82;;
43891;SDS011;29555;45.350;5.578;2023-05-07T02:16:03;0.75;;;0.75;;
43891;SDS011;29555;45.350;5.578;2023-05-07T02:18:28;3.67;;;1.08;;
43891;SDS011;29555;45.350;5.578;2023-05-07T02:20:54;0.88;;;0.82;;
43891;SDS011;29555;45.350;5.578;2023-05-07T02:23:19;0.65;;;0.55;;
43891;SDS011;29555;45.350;5.578;2023-05-07T02:25:45;1.17;;;1.08;;
43891;SDS011;29555;45.350;5.578;2023-05-07T02:28:11;1.70;;;1.20;;
43891;SDS011;29555;45.350;5.578;2023-05-07T02:30:36;1.95;;;0.88;;
43891;SDS011;29555;45.350;5.578;2023-05-07T02:33:02;2.72;;;1.27;;
43891;SDS011;29555;45.350;5.578;2023-05-07T02:35:28;1.70;;;1.00;;
43891;SDS011;29555;45.350;5.578;2023-05-07T02:37:53;1.92;;;0.80;;
43891;SDS011;29555;45.350;5.578;2023-05-07T02:40:18;1.15;;;1.05;;
43891;SDS011;29555;45.350;5.578;2023-05-07T02:42:44;2.17;;;1.38;;
43891;SDS011;29555;45.350;5.578;2023-05-07T02:45:09;3.95;;;1.00;;
43891;SDS011;29555;45.350;5.578;2023-05-07T02:47:35;0.60;;;0.60;;
43891;SDS011;29555;45.350;5.578;2023-05-07T02:50:01;5.88;;;1.15;;
43891;SDS011;29555;45.350;5.578;2023-05-07T02:52:26;1.70;;;1.25;;
43891;SDS011;29555;45.350;5.578;2023-05-07T02:54:52;6.38;;;1.27;;
43891;SDS011;29555;45.350;5.578;2023-05-07T02:57:17;1.02;;;0.85;;
43891;SDS011;29555;45.350;5.578;2023-05-07T02:59:42;2.42;;;1.00;;
43891;SDS011;29555;45.350;5.578;2023-05-07T03:02:08;1.23;;;0.75;;
43891;SDS011;29555;45.350;5.578;2023-05-07T03:04:34;1.67;;;1.23;;
43891;SDS011;29555;45.350;5.578;2023-05-07T03:06:59;1.17;;;1.17;;
43891;SDS011;29555;45.350;5.578;2023-05-07T03:09:25;0.77;;;0.77;;
43891;SDS011;29555;45.350;5.578;2023-05-07T03:11:50;0.40;;;0.40;;
43891;SDS011;29555;45.350;5.578;2023-05-07T03:14:16;3.00;;;0.95;;
43891;SDS011;29555;45.350;5.578;2023-05-07T03:16:42;1.13;;;1.08;;
43891;SDS011;29555;45.350;5.578;2023-05-07T03:19:07;1.48;;;1.15;;
43891;SDS011;29555;45.350;5.578;2023-05-07T03:21:32;1.17;;;1.00;;
43891;SDS011;29555;45.350;5.578;2023-05-07T03:23:58;3.17;;;0.80;;
43891;SDS011;29555;45.350;5.578;2023-05-07T03:26:24;0.70;;;0.50;;
43891;SDS011;29555;45.350;5.578;2023-05-07T03:28:50;0.57;;;0.57;;
43891;SDS011;29555;45.350;5.578;2023-05-07T03:31:16;1.08;;;0.70;;
43891;SDS011;29555;45.350;5.578;2023-05-07T03:33:51;0.73;;;0.73;;
43891;SDS011;29555;45.350;5.578;2023-05-07T03:36:20;2.05;;;1.08;;
43891;SDS011;29555;45.350;5.578;2023-05-07T03:38:46;0.90;;;0.88;;
43891;SDS011;29555;45.350;5.578;2023-05-07T03:41:12;6.65;;;1.23;;
43891;SDS011;29555;45.350;5.578;2023-05-07T03:43:38;0.85;;;0.85;;
43891;SDS011;29555;45.350;5.578;2023-05-07T03:46:03;4.75;;;0.80;;
43891;SDS011;29555;45.350;5.578;2023-05-07T03:48:29;0.75;;;0.63;;
43891;SDS011;29555;45.350;5.578;2023-05-07T03:50:55;0.88;;;0.88;;
43891;SDS011;29555;45.350;5.578;2023-05-07T03:53:21;1.95;;;0.88;;
43891;SDS011;29555;45.350;5.578;2023-05-07T03:55:46;1.08;;;0.50;;
43891;SDS011;29555;45.350;5.578;2023-05-07T03:58:11;1.75;;;0.73;;
43891;SDS011;29555;45.350;5.578;2023-05-07T04:00:37;7.55;;;1.58;;
43891;SDS011;29555;45.350;5.578;2023-05-07T04:03:04;1.20;;;0.63;;
43891;SDS011;29555;45.350;5.578;2023-05-07T04:05:30;0.57;;;0.57;;
43891;SDS011;29555;45.350;5.578;2023-05-07T04:07:55;1.65;;;0.65;;
43891;SDS011;29555;45.350;5.578;2023-05-07T04:10:22;1.67;;;0.75;;
43891;SDS011;29555;45.350;5.578;2023-05-07T04:12:48;1.33;;;1.05;;
43891;SDS011;29555;45.350;5.578;2023-05-07T04:15:13;1.05;;;0.95;;
43891;SDS011;29555;45.350;5.578;2023-05-07T04:17:38;1.63;;;0.77;;
43891;SDS011;29555;45.350;5.578;2023-05-07T04:20:04;0.65;;;0.65;;
43891;SDS011;29555;45.350;5.578;2023-05-07T04:22:32;1.88;;;1.30;;
43891;SDS011;29555;45.350;5.578;2023-05-07T04:24:57;0.68;;;0.55;;
43891;SDS011;29555;45.350;5.578;2023-05-07T04:27:23;0.80;;;0.80;;
43891;SDS011;29555;45.350;5.578;2023-05-07T04:29:48;3.00;;;1.25;;
43891;SDS011;29555;45.350;5.578;2023-05-07T04:32:13;0.73;;;0.73;;
43891;SDS011;29555;45.350;5.578;2023-05-07T04:34:39;1.45;;;1.35;;
43891;SDS011;29555;45.350;5.578;2023-05-07T04:37:04;0.95;;;0.73;;
43891;SDS011;29555;45.350;5.578;2023-05-07T04:39:29;3.83;;;1.42;;
43891;SDS011;29555;45.350;5.578;2023-05-07T04:41:55;0.63;;;0.63;;
43891;SDS011;29555;45.350;5.578;2023-05-07T04:44:20;0.68;;;0.68;;
43891;SDS011;29555;45.350;5.578;2023-05-07T04:46:46;0.73;;;0.73;;
43891;SDS011;29555;45.350;5.578;2023-05-07T04:49:11;1.20;;;1.10;;
43891;SDS011;29555;45.350;5.578;2023-05-07T04:51:36;0.82;;;0.82;;
43891;SDS011;29555;45.350;5.578;2023-05-07T04:54:03;0.95;;;0.95;;
43891;SDS011;29555;45.350;5.578;2023-05-07T04:56:28;3.22;;;1.02;;
43891;SDS011;29555;45.350;5.578;2023-05-07T04:58:54;0.63;;;0.63;;
43891;SDS011;29555;45.350;5.578;2023-05-07T05:01:20;0.70;;;0.70;;
43891;SDS011;29555;45.350;5.578;2023-05-07T05:03:45;3.17;;;1.08;;
43891;SDS011;29555;45.350;5.578;2023-05-07T05:06:11;1.42;;;0.90;;
43891;SDS011;29555;45.350;5.578;2023-05-07T05:08:36;1.83;;;1.23;;
43891;SDS011;29555;45.350;5.578;2023-05-07T05:11:02;2.65;;;0.95;;
43891;SDS011;29555;45.350;5.578;2023-05-07T05:13:27;0.77;;;0.75;;
43891;SDS011;29555;45.350;5.578;2023-05-07T05:15:53;1.90;;;0.73;;
43891;SDS011;29555;45.350;5.578;2023-05-07T05:18:18;2.92;;;1.33;;
43891;SDS011;29555;45.350;5.578;2023-05-07T05:20:43;1.65;;;0.77;;
43891;SDS011;29555;45.350;5.578;2023-05-07T05:23:09;0.98;;;0.95;;
43891;SDS011;29555;45.350;5.578;2023-05-07T05:25:34;2.78;;;1.58;;
43891;SDS011;29555;45.350;5.578;2023-05-07T05:27:59;1.15;;;1.05;;
43891;SDS011;29555;45.350;5.578;2023-05-07T05:30:26;1.23;;;0.68;;
43891;SDS011;29555;45.350;5.578;2023-05-07T05:32:51;1.38;;;1.05;;
43891;SDS011;29555;45.350;5.578;2023-05-07T05:35:16;0.82;;;0.82;;
43891;SDS011;29555;45.350;5.578;2023-05-07T05:37:42;5.25;;;1.33;;
43891;SDS011;29555;45.350;5.578;2023-05-07T05:40:07;1.42;;;1.33;;
43891;SDS011;29555;45.350;5.578;2023-05-07T05:42:33;1.23;;;1.15;;
43891;SDS011;29555;45.350;5.578;2023-05-07T05:44:58;2.30;;;1.02;;
43891;SDS011;29555;45.350;5.578;2023-05-07T05:47:23;5.35;;;1.13;;
43891;SDS011;29555;45.350;5.578;2023-05-07T05:49:49;0.80;;;0.80;;
43891;SDS011;29555;45.350;5.578;2023-05-07T05:52:14;1.23;;;0.82;;
43891;SDS011;29555;45.350;5.578;2023-05-07T05:54:41;3.03;;;0.82;;
43891;SDS011;29555;45.350;5.578;2023-05-07T05:57:07;0.70;;;0.70;;
43891;SDS011;29555;45.350;5.578;2023-05-07T05:59:32;1.63;;;1.52;;
43891;SDS011;29555;45.350;5.578;2023-05-07T06:01:57;2.95;;;1.15;;
43891;SDS011;29555;45.350;5.578;2023-05-07T06:04:23;2.92;;;1.40;;
43891;SDS011;29555;45.350;5.578;2023-05-07T06:06:48;1.38;;;1.23;;
43891;SDS011;29555;45.350;5.578;2023-05-07T06:09:14;1.67;;;1.30;;
43891;SDS011;29555;45.350;5.578;2023-05-07T06:11:39;1.98;;;1.48;;
43891;SDS011;29555;45.350;5.578;2023-05-07T06:14:06;3.50;;;1.13;;
43891;SDS011;29555;45.350;5.578;2023-05-07T06:16:31;1.52;;;0.80;;
43891;SDS011;29555;45.350;5.578;2023-05-07T06:18:56;1.00;;;0.77;;
43891;SDS011;29555;45.350;5.578;2023-05-07T06:21:22;1.55;;;0.70;;
43891;SDS011;29555;45.350;5.578;2023-05-07T06:23:47;2.38;;;0.95;;
43891;SDS011;29555;45.350;5.578;2023-05-07T06:26:12;2.40;;;1.33;;
43891;SDS011;29555;45.350;5.578;2023-05-07T06:28:38;1.40;;;0.93;;
43891;SDS011;29555;45.350;5.578;2023-05-07T06:31:13;1.67;;;1.02;;
43891;SDS011;29555;45.350;5.578;2023-05-07T06:33:40;0.70;;;0.70;;
43891;SDS011;29555;45.350;5.578;2023-05-07T06:36:05;1.42;;;1.23;;
43891;SDS011;29555;45.350;5.578;2023-05-07T06:38:31;1.88;;;0.82;;
43891;SDS011;29555;45.350;5.578;2023-05-07T06:40:56;2.90;;;2.25;;
43891;SDS011;29555;45.350;5.578;2023-05-07T06:43:22;5.47;;;1.05;;
43891;SDS011;29555;45.350;5.578;2023-05-07T06:45:48;1.15;;;1.05;;
43891;SDS011;29555;45.350;5.578;2023-05-07T06:48:13;1.08;;;0.65;;
43891;SDS011;29555;45.350;5.578;2023-05-07T06:50:38;0.95;;;0.90;;
43891;SDS011;29555;45.350;5.578;2023-05-07T06:53:04;1.55;;;1.08;;
43891;SDS011;29555;45.350;5.578;2023-05-07T06:55:29;3.58;;;2.05;;
43891;SDS011;29555;45.350;5.578;2023-05-07T06:57:54;1.85;;;1.58;;
43891;SDS011;29555;45.350;5.578;2023-05-07T07:00:20;1.35;;;1.25;;
43891;SDS011;29555;45.350;5.578;2023-05-07T07:02:45;2.05;;;0.93;;
43891;SDS011;29555;45.350;5.578;2023-05-07T07:05:11;1.60;;;1.13;;
43891;SDS011;29555;45.350;5.578;2023-05-07T07:07:36;1.23;;;1.15;;
43891;SDS011;29555;45.350;5.578;2023-05-07T07:10:02;1.15;;;1.05;;
43891;SDS011;29555;45.350;5.578;2023-05-07T07:12:29;1.50;;;1.15;;
43891;SDS011;29555;45.350;5.578;2023-05-07T07:14:54;1.13;;;1.05;;
43891;SDS011;29555;45.350;5.578;2023-05-07T07:17:20;0.90;;;0.90;;
43891;SDS011;29555;45.350;5.578;2023-05-07T07:19:45;1.15;;;1.10;;
43891;SDS011;29555;45.350;5.578;2023-05-07T07:22:11;1.13;;;0.50;;
43891;SDS011;29555;45.350;5.578;2023-05-07T07:24:36;0.65;;;0.65;;
43891;SDS011;29555;45.350;5.578;2023-05-07T07:27:01;2.92;;;1.27;;
43891;SDS011;29555;45.350;5.578;2023-05-07T07:29:27;0.82;;;0.80;;
43891;SDS011;29555;45.350;5.578;2023-05-07T07:31:52;4.00;;;0.93;;
43891;SDS011;29555;45.350;5.578;2023-05-07T07:34:18;1.50;;;1.40;;
43891;SDS011;29555;45.350;5.578;2023-05-07T07:36:43;2.90;;;1.30;;
43891;SDS011;29555;45.350;5.578;2023-05-07T07:39:08;1.45;;;0.65;;
43891;SDS011;29555;45.350;5.578;2023-05-07T07:41:34;1.38;;;0.60;;
43891;SDS011;29555;45.350;5.578;2023-05-07T07:43:59;1.85;;;1.27;;
43891;SDS011;29555;45.350;5.578;2023-05-07T07:46:25;1.00;;;1.00;;
43891;SDS011;29555;45.350;5.578;2023-05-07T07:48:51;2.08;;;0.95;;
43891;SDS011;29555;45.350;5.578;2023-05-07T07:51:16;2.65;;;0.63;;
43891;SDS011;29555;45.350;5.578;2023-05-07T07:53:42;3.85;;;0.90;;
43891;SDS011;29555;45.350;5.578;2023-05-07T07:56:08;9.80;;;1.25;;
43891;SDS011;29555;45.350;5.578;2023-05-07T07:58:33;6.40;;;0.73;;
43891;SDS011;29555;45.350;5.578;2023-05-07T08:01:00;1.27;;;1.17;;
43891;SDS011;29555;45.350;5.578;2023-05-07T08:03:26;9.00;;;3.50;;
43891;SDS011;29555;45.350;5.578;2023-05-07T08:05:51;8.07;;;2.92;;
43891;SDS011;29555;45.350;5.578;2023-05-07T08:08:16;11.18;;;1.95;;
43891;SDS011;29555;45.350;5.578;2023-05-07T08:10:42;5.97;;;1.95;;
43891;SDS011;29555;45.350;5.578;2023-05-07T08:13:07;2.50;;;2.22;;
43891;SDS011;29555;45.350;5.578;2023-05-07T08:15:33;5.95;;;2.70;;
43891;SDS011;29555;45.350;5.578;2023-05-07T08:17:58;3.75;;;2.08;;
43891;SDS011;29555;45.350;5.578;2023-05-07T08:20:25;4.47;;;3.20;;
43891;SDS011;29555;45.350;5.578;2023-05-07T08:22:51;2.85;;;1.83;;
43891;SDS011;29555;45.350;5.578;2023-05-07T08:25:16;1.20;;;1.10;;
43891;SDS011;29555;45.350;5.578;2023-05-07T08:27:41;5.63;;;3.05;;
43891;SDS011;29555;45.350;5.578;2023-05-07T08:30:07;9.57;;;2.00;;
43891;SDS011;29555;45.350;5.578;2023-05-07T08:32:33;4.07;;;2.15;;
43891;SDS011;29555;45.350;5.578;2023-05-07T08:34:59;6.68;;;2.28;;
43891;SDS011;29555;45.350;5.578;2023-05-07T08:37:24;1.65;;;1.20;;
43891;SDS011;29555;45.350;5.578;2023-05-07T08:39:53;2.78;;;1.92;;
43891;SDS011;29555;45.350;5.578;2023-05-07T08:42:18;2.25;;;1.80;;
43891;SDS011;29555;45.350;5.578;2023-05-07T08:44:45;3.58;;;1.80;;
43891;SDS011;29555;45.350;5.578;2023-05-07T08:47:13;3.15;;;2.00;;
43891;SDS011;29555;45.350;5.578;2023-05-07T08:49:39;17.88;;;2.45;;
43891;SDS011;29555;45.350;5.578;2023-05-07T08:52:05;3.53;;;2.45;;
43891;SDS011;29555;45.350;5.578;2023-05-07T08:54:30;1.50;;;1.40;;
43891;SDS011;29555;45.350;5.578;2023-05-07T08:56:56;1.20;;;0.80;;
43891;SDS011;29555;45.350;5.578;2023-05-07T08:59:22;2.42;;;1.63;;
43891;SDS011;29555;45.350;5.578;2023-05-07T09:01:47;7.25;;;1.77;;
43891;SDS011;29555;45.350;5.578;2023-05-07T09:04:13;1.35;;;0.93;;
43891;SDS011;29555;45.350;5.578;2023-05-07T09:06:38;1.55;;;0.75;;
43891;SDS011;29555;45.350;5.578;2023-05-07T09:09:07;1.27;;;0.93;;
43891;SDS011;29555;45.350;5.578;2023-05-07T09:11:32;1.92;;;1.02;;
43891;SDS011;29555;45.350;5.578;2023-05-07T09:13:58;7.50;;;0.95;;
43891;SDS011;29555;45.350;5.578;2023-05-07T09:16:26;1.85;;;1.75;;
43891;SDS011;29555;45.350;5.578;2023-05-07T09:18:52;2.33;;;1.90;;
43891;SDS011;29555;45.350;5.578;2023-05-07T09:21:19;3.42;;;1.15;;
43891;SDS011;29555;45.350;5.578;2023-05-07T09:23:47;2.50;;;2.08;;
43891;SDS011;29555;45.350;5.578;2023-05-07T09:26:16;1.77;;;1.67;;
43891;SDS011;29555;45.350;5.578;2023-05-07T09:28:41;3.70;;;1.83;;
43891;SDS011;29555;45.350;5.578;2023-05-07T09:31:07;2.13;;;1.08;;
43891;SDS011;29555;45.350;5.578;2023-05-07T09:33:33;2.50;;;2.00;;
43891;SDS011;29555;45.350;5.578;2023-05-07T09:36:02;2.50;;;2.15;;
43891;SDS011;29555;45.350;5.578;2023-05-07T09:38:28;1.98;;;1.63;;
43891;SDS011;29555;45.350;5.578;2023-05-07T09:41:07;3.78;;;1.95;;
43891;SDS011;29555;45.350;5.578;2023-05-07T09:43:33;2.45;;;2.00;;
43891;SDS011;29555;45.350;5.578;2023-05-07T09:46:11;5.85;;;1.45;;
43891;SDS011;29555;45.350;5.578;2023-05-07T09:48:38;4.47;;;1.90;;
43891;SDS011;29555;45.350;5.578;2023-05-07T09:51:29;2.13;;;1.67;;
43891;SDS011;29555;45.350;5.578;2023-05-07T09:53:54;3.20;;;1.70;;
43891;SDS011;29555;45.350;5.578;2023-05-07T09:56:21;4.03;;;2.55;;
43891;SDS011;29555;45.350;5.578;2023-05-07T09:58:46;5.85;;;2.40;;
43891;SDS011;29555;45.350;5.578;2023-05-07T10:01:13;2.08;;;1.83;;
43891;SDS011;29555;45.350;5.578;2023-05-07T10:03:40;9.43;;;2.58;;
43891;SDS011;29555;45.350;5.578;2023-05-07T10:06:08;1.85;;;1.67;;
43891;SDS011;29555;45.350;5.578;2023-05-07T10:08:35;2.88;;;1.55;;
43891;SDS011;29555;45.350;5.578;2023-05-07T10:11:01;2.90;;;1.42;;
43891;SDS011;29555;45.350;5.578;2023-05-07T10:13:27;12.45;;;1.55;;
43891;SDS011;29555;45.350;5.578;2023-05-07T10:15:52;2.08;;;1.30;;
43891;SDS011;29555;45.350;5.578;2023-05-07T10:18:19;1.42;;;1.23;;
43891;SDS011;29555;45.350;5.578;2023-05-07T10:20:48;4.85;;;2.28;;
43891;SDS011;29555;45.350;5.578;2023-05-07T10:23:18;3.47;;;1.98;;
43891;SDS011;29555;45.350;5.578;2023-05-07T10:25:47;2.72;;;2.03;;
43891;SDS011;29555;45.350;5.578;2023-05-07T10:28:13;2.53;;;1.42;;
43891;SDS011;29555;45.350;5.578;2023-05-07T10:30:44;1.48;;;1.05;;
43891;SDS011;29555;45.350;5.578;2023-05-07T10:33:13;1.50;;;1.40;;
43891;SDS011;29555;45.350;5.578;2023-05-07T10:35:40;2.80;;;1.45;;
43891;SDS011;29555;45.350;5.578;2023-05-07T10:38:07;2.97;;;1.70;;
43891;SDS011;29555;45.350;5.578;2023-05-07T10:40:33;1.95;;;1.73;;
43891;SDS011;29555;45.350;5.578;2023-05-07T10:42:59;1.75;;;1.30;;
43891;SDS011;29555;45.350;5.578;2023-05-07T10:45:27;1.17;;;1.02;;
43891;SDS011;29555;45.350;5.578;2023-05-07T10:50:41;2.42;;;1.25;;
43891;SDS011;29555;45.350;5.578;2023-05-07T10:55:42;1.50;;;1.40;;
43891;SDS011;29555;45.350;5.578;2023-05-07T11:00:46;13.55;;;3.25;;
43891;SDS011;29555;45.350;5.578;2023-05-07T11:03:12;4.60;;;1.63;;
43891;SDS011;29555;45.350;5.578;2023-05-07T11:05:39;7.90;;;2.15;;
43891;SDS011;29555;45.350;5.578;2023-05-07T11:08:06;2.35;;;1.90;;
43891;SDS011;29555;45.350;5.578;2023-05-07T11:13:15;4.32;;;2.10;;
43891;SDS011;29555;45.350;5.578;2023-05-07T11:15:45;1.58;;;1.48;;
43891;SDS011;29555;45.350;5.578;2023-05-07T11:18:12;2.30;;;1.35;;
43891;SDS011;29555;45.350;5.578;2023-05-07T11:26:07;4.72;;;1.85;;
43891;SDS011;29555;45.350;5.578;2023-05-07T11:28:40;3.22;;;1.52;;
43891;SDS011;29555;45.350;5.578;2023-05-07T11:31:06;1.73;;;1.38;;
43891;SDS011;29555;45.350;5.578;2023-05-07T11:33:32;1.67;;;1.58;;
43891;SDS011;29555;45.350;5.578;2023-05-07T11:36:02;2.63;;;2.42;;
43891;SDS011;29555;45.350;5.578;2023-05-07T11:38:29;6.22;;;3.25;;
43891;SDS011;29555;45.350;5.578;2023-05-07T11:40:56;1.98;;;1.85;;
43891;SDS011;29555;45.350;5.578;2023-05-07T11:43:22;1.67;;;1.58;;
43891;SDS011;29555;45.350;5.578;2023-05-07T11:45:48;3.00;;;2.30;;
43891;SDS011;29555;45.350;5.578;2023-05-07T11:48:14;5.15;;;2.13;;
43891;SDS011;29555;45.350;5.578;2023-05-07T11:50:49;1.58;;;1.45;;
43891;SDS011;29555;45.350;5.578;2023-05-07T11:53:38;1.40;;;1.30;;
43891;SDS011;29555;45.350;5.578;2023-05-07T11:56:06;1.52;;;1.42;;
43891;SDS011;29555;45.350;5.578;2023-05-07T11:58:32;1.73;;;1.60;;
43891;SDS011;29555;45.350;5.578;2023-05-07T12:00:57;2.50;;;1.63;;
43891;SDS011;29555;45.350;5.578;2023-05-07T12:03:23;2.35;;;1.92;;
43891;SDS011;29555;45.350;5.578;2023-05-07T12:05:48;2.92;;;1.98;;
43891;SDS011;29555;45.350;5.578;2023-05-07T12:08:14;3.00;;;2.30;;
43891;SDS011;29555;45.350;5.578;2023-05-07T12:10:44;2.65;;;1.83;;
43891;SDS011;29555;45.350;5.578;2023-05-07T12:13:17;3.58;;;2.55;;
43891;SDS011;29555;45.350;5.578;2023-05-07T12:15:46;2.10;;;1.90;;
43891;SDS011;29555;45.350;5.578;2023-05-07T12:18:15;2.30;;;1.63;;
43891;SDS011;29555;45.350;5.578;2023-05-07T12:20:41;2.03;;;1.80;;
43891;SDS011;29555;45.350;5.578;2023-05-07T12:23:07;1.67;;;1.58;;
43891;SDS011;29555;45.350;5.578;2023-05-07T12:25:36;1.83;;;1.67;;
43891;SDS011;29555;45.350;5.578;2023-05-07T12:28:05;4.15;;;2.05;;
43891;SDS011;29555;45.350;5.578;2023-05-07T12:30:31;7.88;;;2.35;;
43891;SDS011;29555;45.350;5.578;2023-05-07T12:33:01;3.47;;;1.60;;
43891;SDS011;29555;45.350;5.578;2023-05-07T12:35:29;1.88;;;1.70;;
43891;SDS011;29555;45.350;5.578;2023-05-07T12:37:56;1.30;;;1.20;;
43891;SDS011;29555;45.350;5.578;2023-05-07T12:40:35;1.63;;;1.48;;
43891;SDS011;29555;45.350;5.578;2023-05-07T12:43:02;3.08;;;1.95;;
43891;SDS011;29555;45.350;5.578;2023-05-07T12:45:27;2.15;;;1.65;;
43891;SDS011;29555;45.350;5.578;2023-05-07T12:47:52;2.00;;;1.85;;
43891;SDS011;29555;45.350;5.578;2023-05-07T12:50:18;0.95;;;0.93;;
43891;SDS011;29555;45.350;5.578;2023-05-07T12:52:45;3.33;;;2.30;;
43891;SDS011;29555;45.350;5.578;2023-05-07T12:55:12;2.22;;;2.03;;
43891;SDS011;29555;45.350;5.578;2023-05-07T12:57:43;3.47;;;1.95;;
43891;SDS011;29555;45.350;5.578;2023-05-07T13:00:32;2.83;;;2.63;;
43891;SDS011;29555;45.350;5.578;2023-05-07T13:03:01;2.25;;;2.05;;
43891;SDS011;29555;45.350;5.578;2023-05-07T13:05:26;2.88;;;1.92;;
43891;SDS011;29555;45.350;5.578;2023-05-07T13:07:52;1.90;;;1.80;;
43891;SDS011;29555;45.350;5.578;2023-05-07T13:10:21;7.85;;;2.20;;
43891;SDS011;29555;45.350;5.578;2023-05-07T13:12:48;5.13;;;2.80;;
43891;SDS011;29555;45.350;5.578;2023-05-07T13:15:13;3.05;;;1.75;;
43891;SDS011;29555;45.350;5.578;2023-05-07T13:17:39;4.15;;;2.15;;
43891;SDS011;29555;45.350;5.578;2023-05-07T13:20:04;2.28;;;1.90;;
43891;SDS011;29555;45.350;5.578;2023-05-07T13:22:31;1.92;;;1.83;;
43891;SDS011;29555;45.350;5.578;2023-05-07T13:24:57;2.13;;;1.63;;
43891;SDS011;29555;45.350;5.578;2023-05-07T13:27:22;2.58;;;2.38;;
43891;SDS011;29555;45.350;5.578;2023-05-07T13:29:47;1.63;;;1.52;;
43891;SDS011;29555;45.350;5.578;2023-05-07T13:32:13;2.97;;;2.13;;
43891;SDS011;29555;45.350;5.578;2023-05-07T13:34:38;3.22;;;2.58;;
43891;SDS011;29555;45.350;5.578;2023-05-07T13:37:03;3.70;;;2.70;;
43891;SDS011;29555;45.350;5.578;2023-05-07T13:39:29;3.63;;;2.17;;
43891;SDS011;29555;45.350;5.578;2023-05-07T13:41:54;3.15;;;2.22;;
43891;SDS011;29555;45.350;5.578;2023-05-07T13:44:19;2.42;;;2.22;;
43891;SDS011;29555;45.350;5.578;2023-05-07T13:46:45;4.68;;;2.42;;
43891;SDS011;29555;45.350;5.578;2023-05-07T13:49:11;2.97;;;2.75;;
43891;SDS011;29555;45.350;5.578;2023-05-07T13:51:37;5.00;;;3.35;;
43891;SDS011;29555;45.350;5.578;2023-05-07T13:54:02;3.58;;;3.00;;
43891;SDS011;29555;45.350;5.578;2023-05-07T13:56:29;5.55;;;2.58;;
43891;SDS011;29555;45.350;5.578;2023-05-07T13:58:56;3.28;;;3.00;;
43891;SDS011;29555;45.350;5.578;2023-05-07T14:01:21;4.65;;;2.67;;
43891;SDS011;29555;45.350;5.578;2023-05-07T14:03:47;3.38;;;2.70;;
43891;SDS011;29555;45.350;5.578;2023-05-07T14:06:12;3.78;;;2.40;;
43891;SDS011;29555;45.350;5.578;2023-05-07T14:08:37;2.00;;;1.90;;
43891;SDS011;29555;45.350;5.578;2023-05-07T14:11:03;3.08;;;2.60;;
43891;SDS011;29555;45.350;5.578;2023-05-07T14:13:28;2.85;;;2.47;;
43891;SDS011;29555;45.350;5.578;2023-05-07T14:15:55;4.10;;;2.58;;
43891;SDS011;29555;45.350;5.578;2023-05-07T14:18:21;4.90;;;2.95;;
43891;SDS011;29555;45.350;5.578;2023-05-07T14:20:46;3.40;;;2.88;;
43891;SDS011;29555;45.350;5.578;2023-05-07T14:23:13;4.22;;;2.35;;
43891;SDS011;29555;45.350;5.578;2023-05-07T14:25:39;7.13;;;2.90;;
43891;SDS011;29555;45.350;5.578;2023-05-07T14:28:04;2.83;;;2.60;;
43891;SDS011;29555;45.350;5.578;2023-05-07T14:30:30;3.10;;;2.80;;
43891;SDS011;29555;45.350;5.578;2023-05-07T14:32:55;8.50;;;2.63;;
43891;SDS011;29555;45.350;5.578;2023-05-07T14:35:21;4.57;;;2.83;;
43891;SDS011;29555;45.350;5.578;2023-05-07T14:37:46;4.38;;;2.60;;
43891;SDS011;29555;45.350;5.578;2023-05-07T14:40:11;2.63;;;2.42;;
43891;SDS011;29555;45.350;5.578;2023-05-07T14:42:37;6.28;;;3.33;;
43891;SDS011;29555;45.350;5.578;2023-05-07T14:45:02;3.33;;;3.00;;
43891;SDS011;29555;45.350;5.578;2023-05-07T14:47:28;3.42;;;3.10;;
43891;SDS011;29555;45.350;5.578;2023-05-07T14:49:54;3.03;;;2.40;;
43891;SDS011;29555;45.350;5.578;2023-05-07T14:52:19;5.60;;;3.30;;
43891;SDS011;29555;45.350;5.578;2023-05-07T14:54:45;7.35;;;2.58;;
43891;SDS011;29555;45.350;5.578;2023-05-07T14:57:11;2.90;;;2.70;;
43891;SDS011;29555;45.350;5.578;2023-05-07T14:59:38;2.63;;;2.42;;